createdAt,value
2022-11-29T00:01:08.389Z,96873.47
2022-11-29T00:03:37.593Z,96859.88
2022-11-29T00:06:06.652Z,96869.38
2022-11-29T00:08:34.708Z,96871.00
2022-11-29T00:11:08.246Z,96864.81
2022-11-29T00:13:36.274Z,96863.84
2022-11-29T00:16:05.156Z,96861.22
2022-11-29T00:18:32.961Z,96867.97
2022-11-29T00:21:00.853Z,96866.31
2022-11-29T00:23:28.627Z,96863.28
2022-11-29T00:25:56.361Z,96864.38
2022-11-29T00:28:25.528Z,96857.09
2022-11-29T00:30:53.323Z,96865.88
2022-11-29T00:33:20.975Z,96861.38
2022-11-29T00:35:48.676Z,96863.28
2022-11-29T00:38:16.343Z,96853.94
2022-11-29T00:40:44.023Z,96854.31
2022-11-29T00:43:11.664Z,96854.72
2022-11-29T00:45:40.821Z,96857.19
2022-11-29T00:48:08.564Z,96857.50
2022-11-29T00:50:36.282Z,96857.09
2022-11-29T00:53:04.040Z,96860.78
2022-11-29T00:55:31.735Z,96861.75
2022-11-29T00:57:59.468Z,96853.78
2022-11-29T01:00:27.093Z,96861.09
2022-11-29T01:02:56.327Z,96864.50
2022-11-29T01:05:24.019Z,96863.56
2022-11-29T01:07:51.727Z,96859.56
2022-11-29T01:10:19.742Z,96857.63
2022-11-29T01:12:47.450Z,96854.91
2022-11-29T01:15:15.409Z,96863.44
2022-11-29T01:17:43.159Z,96860.13
2022-11-29T01:20:13.940Z,96861.91
2022-11-29T01:22:42.078Z,96862.47
2022-11-29T01:25:11.956Z,96861.50
2022-11-29T01:27:39.871Z,96861.34
2022-11-29T01:30:09.744Z,96863.97
2022-11-29T01:32:37.789Z,96866.56
2022-11-29T01:35:06.739Z,96867.16
2022-11-29T01:37:35.920Z,96868.91
2022-11-29T01:40:04.092Z,96863.84
2022-11-29T01:42:31.806Z,96870.16
2022-11-29T01:45:07.789Z,96864.78
2022-11-29T01:47:39.235Z,96866.44
2022-11-29T01:50:09.229Z,96856.84
2022-11-29T01:52:39.146Z,96865.78
2022-11-29T01:55:09.761Z,96859.31
2022-11-29T01:57:40.394Z,96858.19
2022-11-29T02:00:11.724Z,96859.59
2022-11-29T02:02:43.045Z,96864.38
2022-11-29T02:05:11.381Z,96865.34
2022-11-29T02:07:40.717Z,96861.91
2022-11-29T02:10:09.430Z,96863.28
2022-11-29T02:12:45.277Z,96860.41
2022-11-29T02:15:34.412Z,96862.19
2022-11-29T02:18:06.724Z,96854.22
2022-11-29T02:20:49.660Z,96859.72
2022-11-29T02:23:36.027Z,96858.31
2022-11-29T02:26:15.337Z,96860.28
2022-11-29T02:28:50.893Z,96857.25
2022-11-29T02:31:51.973Z,96864.94
2022-11-29T02:34:59.916Z,96866.59
2022-11-29T02:37:49.132Z,96859.44
2022-11-29T02:40:38.625Z,96865.78
2022-11-29T02:43:26.551Z,96862.91
2022-11-29T02:46:03.428Z,96861.25
2022-11-29T02:48:45.740Z,96855.72
2022-11-29T02:51:19.303Z,96857.66
2022-11-29T02:53:52.568Z,96865.34
2022-11-29T02:56:25.280Z,96868.63
2022-11-29T02:58:57.052Z,96864.25
2022-11-29T03:01:29.626Z,96864.66
2022-11-29T03:04:03.956Z,96866.88
2022-11-29T03:06:39.771Z,96863.97
2022-11-29T03:09:10.627Z,96863.97
2022-11-29T03:11:42.683Z,96871.13
2022-11-29T03:14:17.294Z,96878.56
2022-11-29T03:16:49.218Z,96874.03
2022-11-29T03:19:30.375Z,96886.53
2022-11-29T03:22:08.342Z,96885.03
2022-11-29T03:24:40.962Z,96879.69
2022-11-29T03:27:13.397Z,96887.09
2022-11-29T03:29:45.368Z,96884.34
2022-11-29T03:32:17.372Z,96888.19
2022-11-29T03:34:57.642Z,96882.84
2022-11-29T03:37:30.160Z,96885.44
2022-11-29T03:40:03.292Z,96888.59
2022-11-29T03:42:33.255Z,96885.56
2022-11-29T03:45:05.562Z,96881.16
2022-11-29T03:47:37.247Z,96883.91
2022-11-29T03:50:08.184Z,96878.56
2022-11-29T03:52:44.038Z,96890.09
2022-11-29T03:55:20.556Z,96891.34
2022-11-29T03:57:55.852Z,96885.44
2022-11-29T04:00:24.039Z,96889.69
2022-11-29T04:03:30.769Z,96888.59
2022-11-29T04:06:21.587Z,96895.34
2022-11-29T04:09:29.313Z,96894.94
2022-11-29T04:12:31.932Z,96890.53
2022-11-29T04:15:25.854Z,96887.50
2022-11-29T04:18:27.253Z,96887.09
2022-11-29T04:21:07.648Z,96891.91
2022-11-29T04:24:00.661Z,96890.94
2022-11-29T04:26:47.845Z,96889.00
2022-11-29T04:29:30.939Z,96894.50
2022-11-29T04:32:11.388Z,96894.91
2022-11-29T04:34:53.824Z,96899.91
2022-11-29T04:37:44.426Z,96897.69
2022-11-29T04:40:26.409Z,96904.97
2022-11-29T04:43:10.541Z,96897.00
2022-11-29T04:45:56.126Z,96898.09
2022-11-29T04:48:39.590Z,96906.63
2022-11-29T04:51:16.471Z,96905.53
2022-11-29T04:53:52.548Z,96903.75
2022-11-29T04:56:27.118Z,96907.06
2022-11-29T04:59:00.007Z,96910.78
2022-11-29T05:01:33.391Z,96908.81
2022-11-29T05:04:06.132Z,96911.16
2022-11-29T05:06:39.272Z,96918.72
2022-11-29T05:09:13.469Z,96915.44
2022-11-29T05:11:49.420Z,96913.38
2022-11-29T05:14:28.340Z,96923.81
2022-11-29T05:17:03.874Z,96920.94
2022-11-29T05:19:44.636Z,96923.53
2022-11-29T05:22:23.385Z,96923.97
2022-11-29T05:24:57.370Z,96921.91
2022-11-29T05:27:33.543Z,96923.28
2022-11-29T05:30:06.511Z,96925.59
2022-11-29T05:32:36.674Z,96922.72
2022-11-29T05:35:30.527Z,96926.28
2022-11-29T05:38:03.506Z,96927.81
2022-11-29T05:40:42.130Z,96932.91
2022-11-29T05:43:19.573Z,96931.66
2022-11-29T05:45:53.612Z,96937.72
2022-11-29T05:48:26.131Z,96936.75
2022-11-29T05:51:03.917Z,96939.38
2022-11-29T05:53:36.506Z,96936.47
2022-11-29T05:56:08.045Z,96934.28
2022-11-29T05:58:44.230Z,96934.84
2022-11-29T06:01:21.816Z,96942.69
2022-11-29T06:03:57.572Z,96940.22
2022-11-29T06:06:32.362Z,96944.22
2022-11-29T06:09:05.899Z,96940.63
2022-11-29T06:11:36.288Z,96943.38
2022-11-29T06:14:09.262Z,96946.81
2022-11-29T06:16:47.659Z,96949.00
2022-11-29T06:19:41.460Z,96945.84
2022-11-29T06:22:21.544Z,96948.75
2022-11-29T06:24:58.304Z,96953.00
2022-11-29T06:27:40.694Z,96942.97
2022-11-29T06:30:10.253Z,96957.00
2022-11-29T06:32:46.136Z,96957.53
2022-11-29T06:35:25.642Z,96957.69
2022-11-29T06:37:56.319Z,96962.34
2022-11-29T06:40:24.478Z,96967.88
2022-11-29T06:42:52.060Z,96969.53
2022-11-29T06:45:21.775Z,96967.31
2022-11-29T06:47:54.283Z,96970.22
2022-11-29T06:50:32.794Z,96974.31
2022-11-29T06:53:05.431Z,96972.56
2022-11-29T06:55:39.559Z,96972.81
2022-11-29T06:58:14.536Z,96978.16
2022-11-29T07:00:47.017Z,96979.81
2022-11-29T07:03:32.330Z,96974.19
2022-11-29T07:06:00.217Z,96986.59
2022-11-29T07:08:28.308Z,96984.91
2022-11-29T07:10:56.635Z,96986.81
2022-11-29T07:13:24.797Z,96989.69
2022-11-29T07:16:01.774Z,96991.25
2022-11-29T07:18:35.349Z,96991.53
2022-11-29T07:21:11.858Z,96992.59
2022-11-29T07:23:44.263Z,96992.03
2022-11-29T07:26:21.618Z,96991.78
2022-11-29T07:29:08.565Z,96994.22
2022-11-29T07:31:45.173Z,96998.22
2022-11-29T07:34:22.283Z,97001.81
2022-11-29T07:36:54.999Z,97001.72
2022-11-29T07:39:30.613Z,97006.13
2022-11-29T07:42:04.057Z,97008.59
2022-11-29T07:44:37.173Z,96999.66
2022-11-29T07:47:04.827Z,97002.97
2022-11-29T07:49:33.801Z,97011.63
2022-11-29T07:52:01.451Z,97010.66
2022-11-29T07:54:29.118Z,97007.09
2022-11-29T07:56:56.754Z,97005.84
2022-11-29T07:59:24.311Z,97005.28
2022-11-29T08:01:51.973Z,97004.72
2022-11-29T08:04:19.576Z,97010.38
2022-11-29T08:06:48.498Z,97008.59
2022-11-29T08:09:16.163Z,97011.19
2022-11-29T08:11:44.682Z,97011.06
2022-11-29T08:14:19.272Z,97019.75
2022-11-29T08:16:46.895Z,97022.34
2022-11-29T08:19:14.488Z,97014.94
2022-11-29T08:21:44.437Z,97022.75
2022-11-29T08:24:13.501Z,97021.94
2022-11-29T08:26:41.264Z,97017.81
2022-11-29T08:29:09.207Z,97024.41
2022-11-29T08:31:36.981Z,97024.00
2022-11-29T08:34:06.776Z,97029.38
2022-11-29T08:36:34.454Z,97025.94
2022-11-29T08:39:08.879Z,97022.50
2022-11-29T08:41:38.640Z,97031.59
2022-11-29T08:44:06.655Z,97029.25
2022-11-29T08:46:51.837Z,97029.38
2022-11-29T08:49:19.638Z,97030.91
2022-11-29T08:51:47.225Z,97034.22
2022-11-29T08:54:13.863Z,97028.41
2022-11-29T08:57:37.547Z,97041.38
2022-11-29T08:59:30.338Z,97040.16
2022-11-29T09:01:58.316Z,97038.91
2022-11-29T09:04:25.916Z,97045.38
2022-11-29T09:06:53.564Z,97045.66
2022-11-29T09:09:21.134Z,97046.63
2022-11-29T09:11:50.061Z,97039.84
2022-11-29T09:14:18.506Z,97045.66
2022-11-29T09:16:46.199Z,97057.25
2022-11-29T09:19:14.937Z,97048.09
2022-11-29T09:21:42.635Z,97051.41
2022-11-29T09:24:10.678Z,97052.25
2022-11-29T09:26:40.633Z,97060.09
2022-11-29T09:29:09.840Z,97059.13
2022-11-29T09:31:37.442Z,97061.22
2022-11-29T09:34:05.199Z,97052.38
2022-11-29T09:36:32.757Z,97061.34
2022-11-29T09:39:03.185Z,97057.63
2022-11-29T09:41:47.067Z,97062.72
2022-11-29T09:44:22.154Z,97055.66
2022-11-29T09:46:58.768Z,97055.84
2022-11-29T09:49:49.516Z,97060.91
2022-11-29T09:52:24.026Z,97052.06
2022-11-29T09:54:56.635Z,97059.34
2022-11-29T09:57:26.946Z,97061.88
2022-11-29T09:59:58.103Z,97060.50
2022-11-29T10:02:31.537Z,97062.66
2022-11-29T10:05:03.704Z,97064.97
2022-11-29T10:07:34.539Z,97065.28
2022-11-29T10:10:05.628Z,97062.94
2022-11-29T10:12:37.179Z,97056.06
2022-11-29T10:15:13.871Z,97062.16
2022-11-29T10:17:44.335Z,97055.09
2022-11-29T10:20:15.402Z,97057.88
2022-11-29T10:22:49.645Z,97053.16
2022-11-29T10:25:24.736Z,97053.88
2022-11-29T10:27:52.621Z,97059.38
2022-11-29T10:30:21.954Z,97060.03
2022-11-29T10:32:53.339Z,97061.69
2022-11-29T10:35:21.383Z,97058.66
2022-11-29T10:38:29.186Z,97057.25
2022-11-29T10:40:48.605Z,97056.16
2022-11-29T10:43:16.262Z,97048.47
2022-11-29T10:45:50.540Z,97060.44
2022-11-29T10:48:20.306Z,97053.31
2022-11-29T10:50:50.363Z,97048.09
2022-11-29T10:53:19.867Z,97057.38
2022-11-29T10:55:51.669Z,97056.22
2022-11-29T10:58:24.825Z,97054.13
2022-11-29T11:00:58.293Z,97053.16
2022-11-29T11:03:34.009Z,97049.59
2022-11-29T11:06:05.519Z,97047.13
2022-11-29T11:08:34.405Z,97052.38
2022-11-29T11:11:03.302Z,97056.91
2022-11-29T11:13:32.328Z,97060.50
2022-11-29T11:16:10.186Z,97056.22
2022-11-29T11:18:38.423Z,97067.19
2022-11-29T11:21:09.523Z,97063.41
2022-11-29T11:23:42.631Z,97065.56
2022-11-29T11:26:12.667Z,97059.94
2022-11-29T11:28:43.565Z,97065.56
2022-11-29T11:31:13.833Z,97064.03
2022-11-29T11:33:42.776Z,97063.97
2022-11-29T11:36:13.430Z,97057.22
2022-11-29T11:38:42.330Z,97062.44
2022-11-29T11:41:19.643Z,97064.41
2022-11-29T11:43:56.129Z,97066.06
2022-11-29T11:46:25.314Z,97068.69
2022-11-29T11:48:54.007Z,97070.34
2022-11-29T11:51:24.502Z,97054.69
2022-11-29T11:53:54.227Z,97067.09
2022-11-29T11:56:22.626Z,97071.97
2022-11-29T11:58:53.576Z,97067.47
2022-11-29T12:01:30.198Z,97074.69
2022-11-29T12:04:02.792Z,97073.91
2022-11-29T12:06:39.472Z,97073.50
2022-11-29T12:09:19.349Z,97073.81
2022-11-29T12:11:52.484Z,97070.25
2022-11-29T12:14:26.871Z,97072.28
2022-11-29T12:17:08.118Z,97075.56
2022-11-29T12:19:40.544Z,97074.78
2022-11-29T12:22:09.812Z,97079.91
2022-11-29T12:24:40.257Z,97076.53
2022-11-29T12:27:14.859Z,97069.81
2022-11-29T12:29:42.460Z,97072.72
2022-11-29T12:32:22.455Z,97073.47
2022-11-29T12:35:08.116Z,97073.25
2022-11-29T12:37:41.195Z,97068.94
2022-11-29T12:40:15.175Z,97068.56
2022-11-29T12:42:49.484Z,97071.88
2022-11-29T12:45:35.776Z,97080.13
2022-11-29T12:48:11.974Z,97072.38
2022-11-29T12:50:49.026Z,97073.19
2022-11-29T12:53:27.506Z,97076.44
2022-11-29T12:56:05.303Z,97077.22
2022-11-29T12:58:42.743Z,97074.06
2022-11-29T13:01:20.538Z,97077.34
2022-11-29T13:04:05.743Z,97081.25
2022-11-29T13:06:40.764Z,97087.84
2022-11-29T13:09:21.472Z,97079.50
2022-11-29T13:11:55.179Z,97090.00
2022-11-29T13:14:42.824Z,97085.34
2022-11-29T13:17:21.981Z,97083.78
2022-11-29T13:20:00.201Z,97094.44
2022-11-29T13:22:33.666Z,97090.97
2022-11-29T13:25:04.714Z,97092.63
2022-11-29T13:27:35.967Z,97087.78
2022-11-29T13:30:04.513Z,97097.31
2022-11-29T13:32:35.801Z,97098.53
2022-11-29T13:35:09.732Z,97100.19
2022-11-29T13:37:40.071Z,97098.94
2022-11-29T13:40:20.637Z,97101.94
2022-11-29T13:42:59.485Z,97110.69
2022-11-29T13:45:31.309Z,97108.31
2022-11-29T13:48:00.490Z,97108.06
2022-11-29T13:50:40.577Z,97107.47
2022-11-29T13:53:15.664Z,97114.94
2022-11-29T13:56:00.087Z,97106.78
2022-11-29T13:58:37.553Z,97112.19
2022-11-29T14:01:08.242Z,97101.56
2022-11-29T14:03:38.902Z,97112.59
2022-11-29T14:06:13.534Z,97111.16
2022-11-29T14:09:17.399Z,97115.56
2022-11-29T14:11:34.595Z,97117.25
2022-11-29T14:14:04.588Z,97114.38
2022-11-29T14:16:35.189Z,97119.88
2022-11-29T14:19:22.923Z,97120.41
2022-11-29T14:22:20.625Z,97126.34
2022-11-29T14:25:01.343Z,97122.91
2022-11-29T14:27:56.208Z,97120.88
2022-11-29T14:30:48.739Z,97125.44
2022-11-29T14:33:23.584Z,97121.09
2022-11-29T14:36:14.304Z,97121.25
2022-11-29T14:38:47.222Z,97130.75
2022-11-29T14:41:22.156Z,97134.34
2022-11-29T14:43:49.826Z,97135.31
2022-11-29T14:46:29.202Z,97134.63
2022-11-29T14:49:02.511Z,97140.56
2022-11-29T14:51:31.594Z,97140.97
2022-11-29T14:54:08.983Z,97146.19
2022-11-29T14:56:43.333Z,97139.47
2022-11-29T14:59:39.256Z,97147.59
2022-11-29T15:02:08.760Z,97146.19
2022-11-29T15:04:37.699Z,97144.41
2022-11-29T15:07:05.782Z,97152.00
2022-11-29T15:09:35.935Z,97149.94
2022-11-29T15:12:08.623Z,97148.53
2022-11-29T15:14:42.800Z,97149.78
2022-11-29T15:17:22.645Z,97147.16
2022-11-29T15:20:08.390Z,97153.38
2022-11-29T15:22:44.299Z,97158.47
2022-11-29T15:25:15.083Z,97153.50
2022-11-29T15:27:52.574Z,97152.97
2022-11-29T15:30:22.589Z,97152.56
2022-11-29T15:32:50.545Z,97147.72
2022-11-29T15:35:19.211Z,97153.94
2022-11-29T15:37:48.741Z,97152.28
2022-11-29T15:40:20.088Z,97158.31
2022-11-29T15:42:50.387Z,97157.78
2022-11-29T15:45:25.889Z,97160.41
2022-11-29T15:47:53.687Z,97165.78
2022-11-29T15:50:25.802Z,97158.03
2022-11-29T15:52:54.737Z,97163.03
2022-11-29T15:55:23.944Z,97169.38
2022-11-29T15:57:53.531Z,97163.28
2022-11-29T16:00:23.883Z,97167.72
2022-11-29T16:02:53.008Z,97167.72
2022-11-29T16:05:22.743Z,97171.00
2022-11-29T16:07:53.645Z,97168.66
2022-11-29T16:10:29.228Z,97167.88
2022-11-29T16:13:06.885Z,97167.28
2022-11-29T16:15:36.593Z,97169.91
2022-11-29T16:18:05.607Z,97170.75
2022-11-29T16:20:33.247Z,97175.28
2022-11-29T16:23:12.393Z,97173.63
2022-11-29T16:25:57.403Z,97183.00
2022-11-29T16:28:26.834Z,97179.97
2022-11-29T16:30:58.768Z,97182.31
2022-11-29T16:33:26.425Z,97189.88
2022-11-29T16:36:05.047Z,97191.53
2022-11-29T16:38:32.903Z,97194.88
2022-11-29T16:41:09.687Z,97192.50
2022-11-29T16:43:53.207Z,97200.09
2022-11-29T16:46:30.279Z,97195.69
2022-11-29T16:49:00.689Z,97191.41
2022-11-29T16:51:37.360Z,97191.00
2022-11-29T16:54:24.975Z,97206.28
2022-11-29T16:56:54.787Z,97205.59
2022-11-29T16:59:27.354Z,97198.56
2022-11-29T17:01:57.294Z,97198.56
2022-11-29T17:04:25.527Z,97198.72
2022-11-29T17:06:54.403Z,97195.69
2022-11-29T17:09:25.002Z,97192.50
2022-11-29T17:11:54.507Z,97195.53
2022-11-29T17:14:22.119Z,97197.31
2022-11-29T17:16:50.392Z,97198.28
2022-11-29T17:19:19.684Z,97205.44
2022-11-29T17:21:47.518Z,97206.41
2022-11-29T17:24:16.602Z,97206.81
2022-11-29T17:26:44.884Z,97204.22
2022-11-29T17:29:15.154Z,97209.59
2022-11-29T17:31:43.923Z,97211.09
2022-11-29T17:34:11.924Z,97220.19
2022-11-29T17:36:40.331Z,97215.22
2022-11-29T17:39:08.195Z,97217.72
2022-11-29T17:41:35.796Z,97217.16
2022-11-29T17:44:03.714Z,97222.94
2022-11-29T17:46:34.183Z,97222.41
2022-11-29T17:49:03.374Z,97219.22
2022-11-29T17:54:18.934Z,97216.28
2022-11-29T17:56:46.499Z,97222.63
2022-11-29T17:59:14.031Z,97226.19
2022-11-29T18:01:43.104Z,97231.44
2022-11-29T18:04:10.794Z,97226.47
2022-11-29T18:06:40.888Z,97227.69
2022-11-29T18:09:10.625Z,97238.44
2022-11-29T18:11:46.952Z,97240.22
2022-11-29T18:14:17.278Z,97245.88
2022-11-29T18:16:46.534Z,97243.66
2022-11-29T18:19:15.449Z,97238.72
2022-11-29T18:21:44.188Z,97241.09
2022-11-29T18:24:12.007Z,97243.81
2022-11-29T18:26:40.504Z,97238.28
2022-11-29T18:29:08.925Z,97241.53
2022-11-29T18:31:37.875Z,97226.50
2022-11-29T18:34:09.578Z,97236.53
2022-11-29T18:36:39.291Z,97237.06
2022-11-29T18:39:08.545Z,97243.38
2022-11-29T18:41:36.517Z,97244.28
2022-11-29T18:44:07.027Z,97241.34
2022-11-29T18:46:36.807Z,97237.34
2022-11-29T18:49:07.271Z,97232.50
2022-11-29T18:51:35.851Z,97235.63
2022-11-29T18:54:03.838Z,97242.44
2022-11-29T18:56:32.942Z,97250.53
2022-11-29T18:59:01.535Z,97244.50
2022-11-29T19:01:30.723Z,97251.81
2022-11-29T19:04:00.331Z,97250.53
2022-11-29T19:06:38.584Z,97255.91
2022-11-29T19:09:07.170Z,97257.81
2022-11-29T19:11:35.259Z,97267.13
2022-11-29T19:14:05.155Z,97267.75
2022-11-29T19:16:34.400Z,97267.03
2022-11-29T19:19:02.765Z,97272.97
2022-11-29T19:21:34.370Z,97265.94
2022-11-29T19:24:03.845Z,97267.75
2022-11-29T19:26:32.887Z,97263.84
2022-11-29T19:29:01.206Z,97263.38
2022-11-29T19:31:29.966Z,97264.84
2022-11-29T19:33:58.415Z,97275.19
2022-11-29T19:36:27.672Z,97280.81
2022-11-29T19:38:57.080Z,97282.56
2022-11-29T19:41:26.512Z,97282.81
2022-11-29T19:43:54.497Z,97287.91
2022-11-29T19:46:23.945Z,97288.25
2022-11-29T19:48:53.364Z,97295.34
2022-11-29T19:51:21.269Z,97294.72
2022-11-29T19:53:49.077Z,97296.47
2022-11-29T19:56:20.296Z,97297.50
2022-11-29T19:58:47.990Z,97294.59
2022-11-29T20:01:17.993Z,97296.50
2022-11-29T20:03:45.909Z,97300.31
2022-11-29T20:06:14.424Z,97302.41
2022-11-29T20:08:42.326Z,97303.13
2022-11-29T20:11:11.888Z,97305.63
2022-11-29T20:13:41.971Z,97320.66
2022-11-29T20:16:11.097Z,97315.75
2022-11-29T20:18:40.324Z,97314.88
2022-11-29T20:21:10.941Z,97313.06
2022-11-29T20:23:39.961Z,97322.91
2022-11-29T20:26:08.690Z,97324.56
2022-11-29T20:28:36.679Z,97329.66
2022-11-29T20:31:07.814Z,97320.97
2022-11-29T20:33:35.932Z,97323.25
2022-11-29T20:36:09.038Z,97327.94
2022-11-29T20:38:40.471Z,97322.75
2022-11-29T20:41:13.676Z,97325.06
2022-11-29T20:43:45.618Z,97332.13
2022-11-29T20:46:15.208Z,97337.25
2022-11-29T20:48:43.297Z,97331.50
2022-11-29T20:51:11.854Z,97324.47
2022-11-29T20:53:41.378Z,97321.50
2022-11-29T20:56:09.908Z,97331.63
2022-11-29T20:58:37.712Z,97333.47
2022-11-29T21:01:06.536Z,97335.19
2022-11-29T21:03:35.614Z,97327.81
2022-11-29T21:06:05.533Z,97321.69
2022-11-29T21:08:33.234Z,97324.47
2022-11-29T21:11:05.602Z,97331.19
2022-11-29T21:13:34.132Z,97333.28
2022-11-29T21:16:02.335Z,97324.22
2022-11-29T21:18:31.401Z,97321.22
2022-11-29T21:21:15.117Z,97329.13
2022-11-29T21:23:48.266Z,97339.34
2022-11-29T21:26:18.406Z,97345.47
2022-11-29T21:28:52.130Z,97345.34
2022-11-29T21:31:20.230Z,97345.53
2022-11-29T21:33:48.415Z,97341.50
2022-11-29T21:36:18.984Z,97340.16
2022-11-29T21:38:50.991Z,97342.31
2022-11-29T21:41:22.588Z,97337.50
2022-11-29T21:44:06.161Z,97328.72
2022-11-29T21:46:34.661Z,97332.72
2022-11-29T21:49:02.307Z,97336.84
2022-11-29T21:51:31.229Z,97332.56
2022-11-29T21:53:58.810Z,97330.03
2022-11-29T21:56:26.390Z,97334.69
2022-11-29T21:58:54.196Z,97336.41
2022-11-29T22:01:21.876Z,97329.66
2022-11-29T22:03:49.495Z,97327.16
2022-11-29T22:06:20.264Z,97336.81
2022-11-29T22:08:49.578Z,97336.22
2022-11-29T22:11:30.559Z,97337.69
2022-11-29T22:14:18.149Z,97333.53
2022-11-29T22:16:47.847Z,97339.16
2022-11-29T22:19:17.014Z,97336.31
2022-11-29T22:21:46.430Z,97332.41
2022-11-29T22:24:16.570Z,97336.31
2022-11-29T22:26:44.874Z,97332.97
2022-11-29T22:29:14.030Z,97330.38
2022-11-29T22:31:42.193Z,97343.19
2022-11-29T22:34:10.076Z,97335.59
2022-11-29T22:36:38.266Z,97343.63
2022-11-29T22:39:06.799Z,97341.81
2022-11-29T22:41:36.741Z,97342.69
2022-11-29T22:44:04.674Z,97347.66
2022-11-29T22:46:32.312Z,97348.09
2022-11-29T22:49:00.560Z,97346.16
2022-11-29T22:51:30.381Z,97344.66
2022-11-29T22:53:59.185Z,97334.06
2022-11-29T22:56:28.759Z,97334.44
2022-11-29T22:58:57.821Z,97333.63
2022-11-29T23:01:26.794Z,97331.97
2022-11-29T23:03:55.580Z,97331.63
2022-11-29T23:06:25.015Z,97326.91
2022-11-29T23:08:55.152Z,97327.97
2022-11-29T23:11:24.267Z,97325.16
2022-11-29T23:13:52.308Z,97328.81
2022-11-29T23:16:22.602Z,97331.06
2022-11-29T23:18:51.113Z,97331.44
2022-11-29T23:21:20.632Z,97330.75
2022-11-29T23:23:55.828Z,97336.34
2022-11-29T23:26:26.329Z,97335.63
2022-11-29T23:28:54.778Z,97330.09
2022-11-29T23:31:24.985Z,97333.66
2022-11-29T23:33:52.918Z,97335.88
2022-11-29T23:36:20.527Z,97335.88
2022-11-29T23:38:48.370Z,97339.19
2022-11-29T23:41:16.228Z,97336.84
2022-11-29T23:43:44.034Z,97334.03
2022-11-29T23:46:14.803Z,97333.06
2022-11-29T23:48:44.069Z,97333.78
2022-11-29T23:51:12.508Z,97327.41
2022-11-29T23:53:40.260Z,97327.50
2022-11-29T23:56:10.667Z,97321.34
2022-11-29T23:58:38.320Z,97321.22
